METAR/TAF

Belfast City Airport
BELFAST HARBOUR
Metar
EGAC 190220Z AUTO 21007KT 9999 FEW042/// 09/07 Q1019

02:20 UTC

Wind: 210° 7kt

Visibility: 9999 m

Sky: FEW 4200 ft

Temp: 9 deg C / 48.2 deg F

Dewpoint: 7 deg C / 44.6 deg F

Pressure: 1019 hPa

Belfast International Airport
BELFAST/ALDERGRO
Metar
EGAA 190220Z AUTO 25009KT 9999 FEW039/// 09/07 Q1019

02:20 UTC

Wind: 250° 9kt

Visibility: 9999 m

Sky: FEW 3900 ft

Temp: 9 deg C / 48.2 deg F

Dewpoint: 7 deg C / 44.6 deg F

Pressure: 1019 hPa

TAF
TAF EGAA 182259Z 1900/1924 24013KT 9999 SCT040 BECMG 1910/1913 13008KT BKN014 TEMPO 1912/1924 7000 RA BKN008 BECMG 1916/1918 22014KT PROB30 TEMPO 1916/1918 3500 +RA BKN004
Print Friendly, PDF & Email